aviador You're here:

KCGS Decoded Metar

COLLEGE PARK in MD, USA
Report Time2017-03-30 18:21:00
UTC Time2017-03-30 18:34:43
Flight Rules vfr VFR
Wind090° at 06 kt
W.Decomp.*RWY 15: 3.9 kt HW 4.5 kt LCW
W.Rank090° ranks 35
Current wind is above 090° avg. (4.4)
Visibility9999 m
Phenomena:N/A
Clouds:Overcast 050 Hf
Expected CloudBase > 4,000 ft AGL from Temp-Dew spread
Ceiling5,000 ft
Temp10°C (ISA -5)
Dew Point00°C (50% RH)
AAT5.9°C
QNH1022 hPa
Density Alt-755 ft
Elevation49 ft
Report Wrong Elevation
Raw Report
METAR KCGS 301821Z AUTO 09006KT 7SM OVC050 10/00 A3017 RMK AO1 T01001004=

Extra information for KCGS:More info

Metar Taf Metar & Taf Last 4 Metars F.Rules Stats Wind Profile Meteogram Temp Stats Airport Information Weather charts Add Link Nearby VenuesMetar ALERT Operation Metar Decoded Social comments

AIRNAV info for KCGS